Aristidis — V7JD7 — position and weather

sailwx.info

Track history (hours):
 
Tides and Currents Weather Stations Pressure Air Temp Water Temp Dewpoint Dewpoint Depression Visibility Wind Speed Wind Dir Waves Ship Positions

Aristidis

Last reported at 2017-Sep-05 19:52 UTC. Time now 2017-Sep-24 16:04 UTC.
Position N 31°22' E 032°20'.
Warning: this ship's position is 18 days out of date.

Length 184 m; draft 9.5 m.

Type: Tanker. MMSI: 538002499.

Date/timePositionNaut miles runAvg speedWind from/ knotsBaromVisibWave heightAir tempDewpointWater temp
2017-Sep-05 19:52N 31°22' E 032°20'0 0.0
2017-Sep-05 14:54N 31°22' E 032°20'0 0.0
2017-Sep-05 14:30N 31°22' E 032°20'0 0.0
2017-Sep-05 14:00N 31°22' E 032°20'0 0.0
2017-Sep-05 13:27N 31°22' E 032°20'0 0.0
2017-Sep-05 13:00N 31°22' E 032°20'0 0.0
2017-Sep-05 12:30N 31°22' E 032°20'0 0.0
2017-Sep-05 12:00N 31°22' E 032°20'0 0.0
2017-Sep-05 11:30N 31°22' E 032°20'0 0.0
2017-Sep-05 11:00N 31°22' E 032°20'0 0.0
2017-Sep-05 10:30N 31°22' E 032°20'0 0.0
2017-Sep-05 10:00N 31°22' E 032°20'0 0.0
2017-Sep-05 09:27N 31°22' E 032°20'0 0.0
2017-Sep-05 08:42N 31°22' E 032°20'0 0.0
2017-Sep-05 05:06N 31°22' E 032°20'0 0.1
2017-Sep-05 05:00N 31°22' E 032°20'0 0.0
2017-Sep-05 04:30N 31°22' E 032°20'0 0.0
2017-Sep-05 03:09N 31°22' E 032°20'0 0.2
2017-Sep-05 02:55N 31°22' E 032°20'1 3.0
2017-Sep-05 02:30N 31°23' E 032°21'4 7.2
2017-Sep-05 02:00N 31°26' E 032°20'4 6.5
2017-Sep-05 01:27N 31°30' E 032°21'510.4
2017-Sep-05 01:00N 31°35' E 032°21'612.6
2017-Sep-05 00:30N 31°38' E 032°27'713.1
2017-Sep-05 00:00N 31°42' E 032°33'612.3
2017-Sep-04 23:30N 31°48' E 032°36'713.5
2017-Sep-04 23:00N 31°54' E 032°38'713.6
2017-Sep-04 22:30N 32°01' E 032°40'713.7
2017-Sep-04 22:00N 32°08' E 032°41'713.7
2017-Sep-04 21:30N 32°15' E 032°43'713.7
2017-Sep-04 21:00N 32°21' E 032°44'813.8
2017-Sep-04 20:26N 32°29' E 032°46'613.9
2017-Sep-04 19:58N 32°35' E 032°48'1914.0
2017-Sep-04 18:38N 32°54' E 032°52'214.0
2017-Sep-04 18:30N 32°55' E 032°52'713.9
2017-Sep-04 18:00N 33°02' E 032°54'713.9
2017-Sep-04 17:28N 33°09' E 032°56'613.8
2017-Sep-04 17:00N 33°16' E 032°58'713.7
2017-Sep-04 16:30N 33°22' E 032°59'713.5
2017-Sep-04 16:00N 33°29' E 033°01'1313.5
2017-Sep-04 15:01N 33°42' E 033°04'012.9
2017-Sep-04 15:00N 33°42' E 033°04'713.6
2017-Sep-04 14:30N 33°49' E 033°06'713.6
2017-Sep-04 14:00N 33°56' E 033°08'36 1.7
2017-Sep-03 16:01N 34°31' E 033°18'0 0.5
2017-Sep-03 16:00N 34°31' E 033°18'2 0.2
2017-Sep-03 06:10N 34°30' E 033°19'5 0.6
2017-Sep-02 21:35N 34°29' E 033°13'612.7
2017-Sep-02 21:05N 34°29' E 033°06'213.7
2017-Sep-02 20:58N 34°29' E 033°04'613.8
2017-Sep-02 20:30N 34°28' E 032°56'714.0
2017-Sep-02 20:00N 34°26' E 032°48'1313.8
2017-Sep-02 19:04N 34°25' E 032°32'213.7
2017-Sep-02 18:54N 34°24' E 032°29'613.7
2017-Sep-02 18:29N 34°24' E 032°23'713.7
2017-Sep-02 17:58N 34°23' E 032°14'3113.7
2017-Sep-02 15:41N 34°20' E 031°37'513.9
2017-Sep-02 15:19N 34°20' E 031°30'3014.0
2017-Sep-02 13:12N 34°17' E 030°55'314.0
2017-Sep-02 13:00N 34°17' E 030°51'713.8
2017-Sep-02 12:30N 34°16' E 030°43'913.9
2017-Sep-02 11:52N 34°16' E 030°32'514.1
2017-Sep-02 11:30N 34°15' E 030°26'814.0
2017-Sep-02 10:56N 34°14' E 030°17'  
2017-Aug-31 01:47N 36°05' E 015°09'413.9
2017-Aug-31 01:30N 36°06' E 015°05'713.9
2017-Aug-31 01:00N 36°08' E 014°56'713.9
2017-Aug-31 00:30N 36°10' E 014°48'713.7
2017-Aug-31 00:00N 36°11' E 014°40'713.6
2017-Aug-30 23:30N 36°13' E 014°32'713.6
2017-Aug-30 23:00N 36°15' E 014°24'713.5
2017-Aug-30 22:30N 36°18' E 014°16'713.5
2017-Aug-30 22:00N 36°19' E 014°08'713.5
2017-Aug-30 21:30N 36°21' E 013°60'713.4
2017-Aug-30 21:00N 36°23' E 013°52'713.4
2017-Aug-30 20:30N 36°25' E 013°44'713.3
2017-Aug-30 20:00N 36°27' E 013°36'713.5
2017-Aug-30 19:30N 36°29' E 013°28'713.6
2017-Aug-30 19:00N 36°31' E 013°20'713.6
2017-Aug-30 18:30N 36°33' E 013°12'713.7
2017-Aug-30 18:00N 36°34' E 013°03'813.8
2017-Aug-30 17:26N 36°37' E 012°54'613.5
2017-Aug-30 17:00N 36°39' E 012°47'813.6
2017-Aug-30 16:23N 36°43' E 012°38'513.5
2017-Aug-30 16:00N 36°46' E 012°32'713.2
2017-Aug-30 15:29N 36°49' E 012°25'813.2
2017-Aug-30 14:54N 36°54' E 012°18'513.2
2017-Aug-30 14:30N 36°57' E 012°12'813.2
2017-Aug-30 13:55N 37°00' E 012°03'513.2
2017-Aug-30 13:31N 37°03' E 011°58'813.2
2017-Aug-30 12:55N 37°07' E 011°49'513.0
2017-Aug-30 12:30N 37°10' E 011°43'612.7
2017-Aug-30 12:00N 37°12' E 011°36'612.7
2017-Aug-30 11:30N 37°14' E 011°28'3 6.4
2017-Aug-30 11:00N 37°15' E 011°25'0 0.5
2017-Aug-30 10:27N 37°15' E 011°25'0 0.6
2017-Aug-30 09:59N 37°15' E 011°26'2 4.2
2017-Aug-30 09:30N 37°15' E 011°23'2 3.2
2017-Aug-30 08:43N 37°17' E 011°21'313.4
2017-Aug-30 08:30N 37°18' E 011°18'3413.7
2017-Aug-30 06:00N 37°33' E 010°39'813.5
2017-Aug-30 05:26N 37°37' E 010°30'613.3
2017-Aug-30 05:00N 37°39' E 010°24'1013.7
2017-Aug-30 04:15N 37°43' E 010°12'613.8
2017-Aug-30 03:47N 37°45' E 010°04'413.7
2017-Aug-30 03:30N 37°46' E 009°59'4913.6
2017-Aug-29 23:54N 38°04' E 009°01'513.4
2017-Aug-29 23:30N 38°07' E 008°56'813.5
2017-Aug-29 22:53N 38°11' E 008°47'613.4
2017-Aug-29 22:27N 38°14' E 008°41'5113.6
2017-Aug-29 18:43N 38°41' E 007°45'313.6
2017-Aug-29 18:30N 38°42' E 007°42'714.0
2017-Aug-29 18:01N 38°46' E 007°35'714.0
2017-Aug-29 17:31N 38°50' E 007°27'713.9
2017-Aug-29 16:59N 38°53' E 007°19'713.9
2017-Aug-29 16:30N 38°57' E 007°12'713.5
2017-Aug-29 16:00N 39°00' E 007°04'713.5
2017-Aug-29 15:30N 39°04' E 006°57'713.5
2017-Aug-29 15:00N 39°07' E 006°50'713.2
2017-Aug-29 14:30N 39°11' E 006°42'713.1
2017-Aug-29 14:00N 39°14' E 006°35'1413.2
2017-Aug-29 12:55N 39°22' E 006°20'513.3
2017-Aug-29 12:30N 39°25' E 006°14'3613.0
2017-Aug-29 09:42N 39°44' E 005°33'212.9
2017-Aug-29 09:30N 39°45' E 005°31'712.9
2017-Aug-29 08:58N 39°49' E 005°23'612.9
2017-Aug-29 08:30N 39°52' E 005°16'713.0
2017-Aug-29 07:59N 39°56' E 005°09'713.2
2017-Aug-29 07:30N 39°59' E 005°02'713.4
2017-Aug-29 07:00N 40°03' E 004°54'713.3
2017-Aug-29 06:30N 40°06' E 004°47'713.3
2017-Aug-29 06:00N 40°10' E 004°40'713.4
2017-Aug-29 05:30N 40°13' E 004°32'713.6
2017-Aug-29 05:00N 40°16' E 004°24'713.8
2017-Aug-29 04:30N 40°20' E 004°17'813.8
2017-Aug-29 03:57N 40°24' E 004°08'613.6
2017-Aug-29 03:30N 40°26' E 004°01'713.7
2017-Aug-29 03:00N 40°30' E 003°53'713.9
2017-Aug-29 02:30N 40°33' E 003°45'714.0
2017-Aug-29 02:00N 40°36' E 003°36'713.6
2017-Aug-29 01:31N 40°40' E 003°29'713.5
2017-Aug-29 01:00N 40°44' E 003°22'713.8
2017-Aug-29 00:30N 40°47' E 003°14'714.3
2017-Aug-29 00:00N 40°51' E 003°06'714.0
2017-Aug-28 23:31N 40°55' E 002°59'713.5
2017-Aug-28 23:00N 40°59' E 002°52'713.1
2017-Aug-28 22:30N 41°03' E 002°45'713.5
2017-Aug-28 22:01N 41°05' E 002°36'713.8
2017-Aug-28 21:30N 41°08' E 002°28'713.7
2017-Aug-28 21:00N 41°12' E 002°20'713.4
2017-Aug-28 20:30N 41°15' E 002°12'510.2
2017-Aug-28 20:00N 41°20' E 002°10'1 0.0
2017-Aug-27 11:03N 41°20' E 002°09'0 0.0
2017-Aug-27 11:00N 41°20' E 002°09'0 0.0
2017-Aug-27 10:30N 41°20' E 002°09'0 0.0
2017-Aug-27 10:00N 41°20' E 002°09'1 1.3
2017-Aug-27 09:30N 41°21' E 002°10'3 6.3
2017-Aug-27 09:00N 41°18' E 002°11'1 1.6
2017-Aug-27 08:26N 41°18' E 002°12'0 0.0
2017-Aug-27 07:56N 41°18' E 002°12'0 0.0
2017-Aug-27 07:25N 41°18' E 002°12'0 0.0
2017-Aug-27 05:26N 41°18' E 002°12'0 0.0
2017-Aug-27 04:56N 41°18' E 002°12'0 0.0
2017-Aug-27 03:38N 41°18' E 002°12'0 0.0
2017-Aug-27 03:26N 41°18' E 002°12'0 0.0
2017-Aug-27 02:59N 41°18' E 002°12'0 0.0
2017-Aug-27 02:26N 41°18' E 002°12'0 0.0
2017-Aug-27 01:59N 41°18' E 002°12'0 0.0
2017-Aug-27 01:26N 41°18' E 002°12'0 0.0
2017-Aug-27 00:44N 41°18' E 002°12'0 0.0
2017-Aug-27 00:26N 41°18' E 002°12'0 0.0
2017-Aug-26 23:59N 41°18' E 002°12'0 0.0
2017-Aug-26 23:29N 41°18' E 002°12'0 0.0
2017-Aug-26 22:59N 41°18' E 002°12'0 0.0
2017-Aug-26 22:29N 41°18' E 002°12'0 0.0
2017-Aug-26 21:55N 41°18' E 002°12'0 0.0
2017-Aug-26 21:29N 41°18' E 002°12'0 0.0
2017-Aug-26 20:53N 41°18' E 002°12'0 0.0
2017-Aug-26 20:28N 41°18' E 002°12'0 0.0
2017-Aug-26 19:56N 41°18' E 002°12'  
Track history (hours):
 
Tides and Currents Weather Stations Pressure Air Temp Water Temp Dewpoint Dewpoint Depression Visibility Wind Speed Wind Dir Waves Ship Positions

Aristidis

Last reported at 2017-Sep-05 19:52 UTC. Time now 2017-Sep-24 16:04 UTC.
Position N 31°22' E 032°20'.
Warning: this ship's position is 18 days out of date.

Length 184 m; draft 9.5 m.

Type: Tanker. MMSI: 538002499.

Date/timePositionNaut miles runAvg speedWind from/ knotsBaromVisibWave heightAir tempDewpointWater temp
2017-Sep-05 19:52N 31°22' E 032°20'0 0.0
2017-Sep-05 14:54N 31°22' E 032°20'0 0.0
2017-Sep-05 14:30N 31°22' E 032°20'0 0.0
2017-Sep-05 14:00N 31°22' E 032°20'0 0.0
2017-Sep-05 13:27N 31°22' E 032°20'0 0.0
2017-Sep-05 13:00N 31°22' E 032°20'0 0.0
2017-Sep-05 12:30N 31°22' E 032°20'0 0.0
2017-Sep-05 12:00N 31°22' E 032°20'0 0.0
2017-Sep-05 11:30N 31°22' E 032°20'0 0.0
2017-Sep-05 11:00N 31°22' E 032°20'0 0.0
2017-Sep-05 10:30N 31°22' E 032°20'0 0.0
2017-Sep-05 10:00N 31°22' E 032°20'0 0.0
2017-Sep-05 09:27N 31°22' E 032°20'0 0.0
2017-Sep-05 08:42N 31°22' E 032°20'0 0.0
2017-Sep-05 05:06N 31°22' E 032°20'0 0.1
2017-Sep-05 05:00N 31°22' E 032°20'0 0.0
2017-Sep-05 04:30N 31°22' E 032°20'0 0.0
2017-Sep-05 03:09N 31°22' E 032°20'0 0.2
2017-Sep-05 02:55N 31°22' E 032°20'1 3.0
2017-Sep-05 02:30N 31°23' E 032°21'4 7.2
2017-Sep-05 02:00N 31°26' E 032°20'4 6.5
2017-Sep-05 01:27N 31°30' E 032°21'510.4
2017-Sep-05 01:00N 31°35' E 032°21'612.6
2017-Sep-05 00:30N 31°38' E 032°27'713.1
2017-Sep-05 00:00N 31°42' E 032°33'612.3
2017-Sep-04 23:30N 31°48' E 032°36'713.5
2017-Sep-04 23:00N 31°54' E 032°38'713.6
2017-Sep-04 22:30N 32°01' E 032°40'713.7
2017-Sep-04 22:00N 32°08' E 032°41'713.7
2017-Sep-04 21:30N 32°15' E 032°43'713.7
2017-Sep-04 21:00N 32°21' E 032°44'813.8
2017-Sep-04 20:26N 32°29' E 032°46'613.9
2017-Sep-04 19:58N 32°35' E 032°48'1914.0
2017-Sep-04 18:38N 32°54' E 032°52'214.0
2017-Sep-04 18:30N 32°55' E 032°52'713.9
2017-Sep-04 18:00N 33°02' E 032°54'713.9
2017-Sep-04 17:28N 33°09' E 032°56'613.8
2017-Sep-04 17:00N 33°16' E 032°58'713.7
2017-Sep-04 16:30N 33°22' E 032°59'713.5
2017-Sep-04 16:00N 33°29' E 033°01'1313.5
2017-Sep-04 15:01N 33°42' E 033°04'012.9
2017-Sep-04 15:00N 33°42' E 033°04'713.6
2017-Sep-04 14:30N 33°49' E 033°06'713.6
2017-Sep-04 14:00N 33°56' E 033°08'36 1.7
2017-Sep-03 16:01N 34°31' E 033°18'0 0.5
2017-Sep-03 16:00N 34°31' E 033°18'2 0.2
2017-Sep-03 06:10N 34°30' E 033°19'5 0.6
2017-Sep-02 21:35N 34°29' E 033°13'612.7
2017-Sep-02 21:05N 34°29' E 033°06'213.7
2017-Sep-02 20:58N 34°29' E 033°04'613.8
2017-Sep-02 20:30N 34°28' E 032°56'714.0
2017-Sep-02 20:00N 34°26' E 032°48'1313.8
2017-Sep-02 19:04N 34°25' E 032°32'213.7
2017-Sep-02 18:54N 34°24' E 032°29'613.7
2017-Sep-02 18:29N 34°24' E 032°23'713.7
2017-Sep-02 17:58N 34°23' E 032°14'3113.7
2017-Sep-02 15:41N 34°20' E 031°37'513.9
2017-Sep-02 15:19N 34°20' E 031°30'3014.0
2017-Sep-02 13:12N 34°17' E 030°55'314.0
2017-Sep-02 13:00N 34°17' E 030°51'713.8
2017-Sep-02 12:30N 34°16' E 030°43'913.9
2017-Sep-02 11:52N 34°16' E 030°32'514.1
2017-Sep-02 11:30N 34°15' E 030°26'814.0
2017-Sep-02 10:56N 34°14' E 030°17'  
2017-Aug-31 01:47N 36°05' E 015°09'413.9
2017-Aug-31 01:30N 36°06' E 015°05'713.9
2017-Aug-31 01:00N 36°08' E 014°56'713.9
2017-Aug-31 00:30N 36°10' E 014°48'713.7
2017-Aug-31 00:00N 36°11' E 014°40'713.6
2017-Aug-30 23:30N 36°13' E 014°32'713.6
2017-Aug-30 23:00N 36°15' E 014°24'713.5
2017-Aug-30 22:30N 36°18' E 014°16'713.5
2017-Aug-30 22:00N 36°19' E 014°08'713.5
2017-Aug-30 21:30N 36°21' E 013°60'713.4
2017-Aug-30 21:00N 36°23' E 013°52'713.4
2017-Aug-30 20:30N 36°25' E 013°44'713.3
2017-Aug-30 20:00N 36°27' E 013°36'713.5
2017-Aug-30 19:30N 36°29' E 013°28'713.6
2017-Aug-30 19:00N 36°31' E 013°20'713.6
2017-Aug-30 18:30N 36°33' E 013°12'713.7
2017-Aug-30 18:00N 36°34' E 013°03'813.8
2017-Aug-30 17:26N 36°37' E 012°54'613.5
2017-Aug-30 17:00N 36°39' E 012°47'813.6
2017-Aug-30 16:23N 36°43' E 012°38'513.5
2017-Aug-30 16:00N 36°46' E 012°32'713.2
2017-Aug-30 15:29N 36°49' E 012°25'813.2
2017-Aug-30 14:54N 36°54' E 012°18'513.2
2017-Aug-30 14:30N 36°57' E 012°12'813.2
2017-Aug-30 13:55N 37°00' E 012°03'513.2
2017-Aug-30 13:31N 37°03' E 011°58'813.2
2017-Aug-30 12:55N 37°07' E 011°49'513.0
2017-Aug-30 12:30N 37°10' E 011°43'612.7
2017-Aug-30 12:00N 37°12' E 011°36'612.7
2017-Aug-30 11:30N 37°14' E 011°28'3 6.4
2017-Aug-30 11:00N 37°15' E 011°25'0 0.5
2017-Aug-30 10:27N 37°15' E 011°25'0 0.6
2017-Aug-30 09:59N 37°15' E 011°26'2 4.2
2017-Aug-30 09:30N 37°15' E 011°23'2 3.2
2017-Aug-30 08:43N 37°17' E 011°21'313.4
2017-Aug-30 08:30N 37°18' E 011°18'3413.7
2017-Aug-30 06:00N 37°33' E 010°39'813.5
2017-Aug-30 05:26N 37°37' E 010°30'613.3
2017-Aug-30 05:00N 37°39' E 010°24'1013.7
2017-Aug-30 04:15N 37°43' E 010°12'613.8
2017-Aug-30 03:47N 37°45' E 010°04'413.7
2017-Aug-30 03:30N 37°46' E 009°59'4913.6
2017-Aug-29 23:54N 38°04' E 009°01'513.4
2017-Aug-29 23:30N 38°07' E 008°56'813.5
2017-Aug-29 22:53N 38°11' E 008°47'613.4
2017-Aug-29 22:27N 38°14' E 008°41'5113.6
2017-Aug-29 18:43N 38°41' E 007°45'313.6
2017-Aug-29 18:30N 38°42' E 007°42'714.0
2017-Aug-29 18:01N 38°46' E 007°35'714.0
2017-Aug-29 17:31N 38°50' E 007°27'713.9
2017-Aug-29 16:59N 38°53' E 007°19'713.9
2017-Aug-29 16:30N 38°57' E 007°12'713.5
2017-Aug-29 16:00N 39°00' E 007°04'713.5
2017-Aug-29 15:30N 39°04' E 006°57'713.5
2017-Aug-29 15:00N 39°07' E 006°50'713.2
2017-Aug-29 14:30N 39°11' E 006°42'713.1
2017-Aug-29 14:00N 39°14' E 006°35'1413.2
2017-Aug-29 12:55N 39°22' E 006°20'513.3
2017-Aug-29 12:30N 39°25' E 006°14'3613.0
2017-Aug-29 09:42N 39°44' E 005°33'212.9
2017-Aug-29 09:30N 39°45' E 005°31'712.9
2017-Aug-29 08:58N 39°49' E 005°23'612.9
2017-Aug-29 08:30N 39°52' E 005°16'713.0
2017-Aug-29 07:59N 39°56' E 005°09'713.2
2017-Aug-29 07:30N 39°59' E 005°02'713.4
2017-Aug-29 07:00N 40°03' E 004°54'713.3
2017-Aug-29 06:30N 40°06' E 004°47'713.3
2017-Aug-29 06:00N 40°10' E 004°40'713.4
2017-Aug-29 05:30N 40°13' E 004°32'713.6
2017-Aug-29 05:00N 40°16' E 004°24'713.8
2017-Aug-29 04:30N 40°20' E 004°17'813.8
2017-Aug-29 03:57N 40°24' E 004°08'613.6
2017-Aug-29 03:30N 40°26' E 004°01'713.7
2017-Aug-29 03:00N 40°30' E 003°53'713.9
2017-Aug-29 02:30N 40°33' E 003°45'714.0
2017-Aug-29 02:00N 40°36' E 003°36'713.6
2017-Aug-29 01:31N 40°40' E 003°29'713.5
2017-Aug-29 01:00N 40°44' E 003°22'713.8
2017-Aug-29 00:30N 40°47' E 003°14'714.3
2017-Aug-29 00:00N 40°51' E 003°06'714.0
2017-Aug-28 23:31N 40°55' E 002°59'713.5
2017-Aug-28 23:00N 40°59' E 002°52'713.1
2017-Aug-28 22:30N 41°03' E 002°45'713.5
2017-Aug-28 22:01N 41°05' E 002°36'713.8
2017-Aug-28 21:30N 41°08' E 002°28'713.7
2017-Aug-28 21:00N 41°12' E 002°20'713.4
2017-Aug-28 20:30N 41°15' E 002°12'510.2
2017-Aug-28 20:00N 41°20' E 002°10'1 0.0
2017-Aug-27 11:03N 41°20' E 002°09'0 0.0
2017-Aug-27 11:00N 41°20' E 002°09'0 0.0
2017-Aug-27 10:30N 41°20' E 002°09'0 0.0
2017-Aug-27 10:00N 41°20' E 002°09'1 1.3
2017-Aug-27 09:30N 41°21' E 002°10'3 6.3
2017-Aug-27 09:00N 41°18' E 002°11'1 1.6
2017-Aug-27 08:26N 41°18' E 002°12'0 0.0
2017-Aug-27 07:56N 41°18' E 002°12'0 0.0
2017-Aug-27 07:25N 41°18' E 002°12'0 0.0
2017-Aug-27 05:26N 41°18' E 002°12'0 0.0
2017-Aug-27 04:56N 41°18' E 002°12'0 0.0
2017-Aug-27 03:38N 41°18' E 002°12'0 0.0
2017-Aug-27 03:26N 41°18' E 002°12'0 0.0
2017-Aug-27 02:59N 41°18' E 002°12'0 0.0
2017-Aug-27 02:26N 41°18' E 002°12'0 0.0
2017-Aug-27 01:59N 41°18' E 002°12'0 0.0
2017-Aug-27 01:26N 41°18' E 002°12'0 0.0
2017-Aug-27 00:44N 41°18' E 002°12'0 0.0
2017-Aug-27 00:26N 41°18' E 002°12'0 0.0
2017-Aug-26 23:59N 41°18' E 002°12'0 0.0
2017-Aug-26 23:29N 41°18' E 002°12'0 0.0
2017-Aug-26 22:59N 41°18' E 002°12'0 0.0
2017-Aug-26 22:29N 41°18' E 002°12'0 0.0
2017-Aug-26 21:55N 41°18' E 002°12'0 0.0
2017-Aug-26 21:29N 41°18' E 002°12'0 0.0
2017-Aug-26 20:53N 41°18' E 002°12'0 0.0
2017-Aug-26 20:28N 41°18' E 002°12'0 0.0
2017-Aug-26 19:56N 41°18' E 002°12'  

Dump ship's entire track history